Terminal Aerodrome Forecast
Issued by NWS

Home | Current Version | Previous Version | Text Only | Print | Product List | Glossary On
Versions: 1 2 3 4 5 6 7 8 9 10 11 12 13 14 15 16
000
FTUS43 KSGF 121700 AAA
TAFJLN
TAF AMD
KJLN 121757Z 1218/1318 24015G20KT P6SM SCT250
     FM130100 20009KT P6SM SKC
     FM130900 20009KT P6SM SKC WS015/24035KT
     FM131400 23015G20KT P6SM SKC=

USA.gov is the U.S. government's official web portal to all federal, state and local government web resources and services.